logo
Search for airport 
image banner adimage banner adimage banner ad
image banner ad

SIJB - Jk Business Center

Located in Palmas, Brazil

ICAO - SIJB, IATA -

Data provided by Airmate  

General information

Coordinates: S10°11'6" W48°20'15"
Elevation is 1099 feet MSL.
Magnetic variation is -21.474828017° East
View others Airports in Tocatins

Operational data

Special qualification required
Current time UTC:
Current local time:
Weather at : SBPJ - Brigadeiro Lysias Rodrigues ( 12 km )
TAF: TAF SBPJ 281503Z 2818/2918 16006KT CAVOK TX33/2819Z TN23/2909Z BECMG 2913/2915 22008KT RMK PGX
View NOTAMs / SUP AIP / TFR affecting this airport [VIEW]
Communications frequencies: [VIEW]

Runways:

Airport contact information

Address: Palmas Brazil

Satellite view of SIJB